Time;durP1;ratioP1;P1;durP2;ratioP2;P2;SDS_P1;SDS_P2;PMS_P1;PMS_P2;Temp;Humidity;BMP_temperature;BMP_pressure;BME280_temperature;BME280_humidity;BME280_pressure;Samples;Min_cycle;Max_cycle;Signal;HPM_P1;HPM_P2
2021/09/23 00:01:47;;;;;;;27.73;16.70;;;;;;;11.55;100.00;100138.34;5074176;28;20232;-74
2021/09/23 00:04:21;;;;;;;16.05;10.95;;;;;;;11.70;99.53;100126.75;5074511;28;20189;-72
2021/09/23 00:06:49;;;;;;;13.20;9.95;;;;;;;11.42;100.00;100139.03;5074735;28;20193;-72
2021/09/23 00:09:15;;;;;;;12.20;9.18;;;;;;;11.42;100.00;100140.84;5074494;28;20200;-71
2021/09/23 00:11:42;;;;;;;19.98;12.00;;;;;;;11.53;100.00;100119.56;5074659;28;20216;-72
2021/09/23 00:14:09;;;;;;;12.68;9.55;;;;;;;11.40;100.00;100123.88;5073727;28;20594;-72
2021/09/23 00:16:35;;;;;;;14.50;9.57;;;;;;;11.32;100.00;100126.09;5074590;28;20211;-73
2021/09/23 00:19:02;;;;;;;12.93;9.15;;;;;;;11.20;100.00;100138.41;5074550;28;20185;-72
2021/09/23 00:21:29;;;;;;;9.80;7.45;;;;;;;11.21;100.00;100134.75;5074523;28;20220;-72
2021/09/23 00:23:56;;;;;;;10.98;8.00;;;;;;;11.21;100.00;100141.00;5074530;28;20196;-72
2021/09/23 00:26:23;;;;;;;10.18;7.88;;;;;;;11.20;100.00;100133.88;5074241;28;20193;-72
2021/09/23 00:28:50;;;;;;;11.82;8.90;;;;;;;11.41;100.00;100142.66;5074112;28;20207;-73
2021/09/23 00:31:16;;;;;;;12.05;8.50;;;;;;;11.25;100.00;100136.34;5073968;28;20200;-72
2021/09/23 00:33:43;;;;;;;9.90;7.53;;;;;;;11.25;100.00;100131.81;5074379;28;20532;-73
2021/09/23 00:36:10;;;;;;;9.25;7.55;;;;;;;11.35;100.00;100129.53;5073809;28;20311;-73
2021/09/23 00:38:36;;;;;;;15.05;8.13;;;;;;;11.50;98.51;100124.25;5073957;28;20199;-73
2021/09/23 00:41:04;;;;;;;16.70;8.15;;;;;;;11.61;97.94;100116.47;5073856;28;20212;-72
2021/09/23 00:43:31;;;;;;;9.40;7.13;;;;;;;11.56;96.43;100119.41;5073946;28;20207;-74
2021/09/23 00:45:58;;;;;;;12.32;8.05;;;;;;;11.62;97.10;100108.28;5074021;28;20195;-71
2021/09/23 00:48:25;;;;;;;10.38;7.15;;;;;;;11.55;96.69;100122.19;5073920;28;20529;-72
2021/09/23 00:50:52;;;;;;;10.10;8.20;;;;;;;11.72;96.01;100110.50;5074062;28;20215;-72
2021/09/23 00:53:19;;;;;;;8.18;7.05;;;;;;;11.38;97.22;100115.00;5073834;28;20199;-72
2021/09/23 00:55:48;;;;;;;10.30;6.93;;;;;;;11.14;99.34;100115.31;5073569;28;20200;-73
2021/09/23 00:58:16;;;;;;;9.52;6.90;;;;;;;11.20;99.56;100112.31;5073893;28;20560;-73
2021/09/23 01:00:43;;;;;;;11.77;7.07;;;;;;;11.18;99.72;100116.06;5073229;28;20204;-72
2021/09/23 01:03:11;;;;;;;10.57;7.50;;;;;;;11.27;98.87;100115.56;5073576;28;20181;-72
2021/09/23 01:05:38;;;;;;;12.18;8.02;;;;;;;10.99;99.85;100110.72;5072915;28;20201;-73
2021/09/23 01:08:05;;;;;;;9.02;7.00;;;;;;;10.91;100.00;100105.75;5073118;28;20275;-73
2021/09/23 01:10:32;;;;;;;11.77;6.75;;;;;;;10.78;100.00;100099.25;5073545;28;20203;-72
2021/09/23 01:12:59;;;;;;;9.52;7.25;;;;;;;10.79;100.00;100104.56;5053572;28;20220;-72
2021/09/23 01:15:27;;;;;;;9.15;7.30;;;;;;;10.76;100.00;100109.22;5053189;28;20217;-72
2021/09/23 01:17:54;;;;;;;7.63;6.78;;;;;;;10.82;100.00;100098.16;5053249;28;20185;-73
2021/09/23 01:20:21;;;;;;;9.07;7.43;;;;;;;10.88;100.00;100097.84;5059781;28;20203;-72
2021/09/23 01:22:49;;;;;;;7.40;6.65;;;;;;;11.17;99.71;100095.44;5073612;28;20188;-74
2021/09/23 01:25:18;;;;;;;14.95;8.77;;;;;;;11.06;99.43;100088.78;5072813;28;20189;-72
2021/09/23 01:27:44;;;;;;;11.05;7.00;;;;;;;10.91;100.00;100086.88;5073294;28;20275;-72
2021/09/23 01:30:12;;;;;;;10.55;7.13;;;;;;;10.79;100.00;100079.44;5073531;28;20188;-72
2021/09/23 01:32:39;;;;;;;10.52;7.45;;;;;;;10.87;100.00;100082.59;5073524;28;20196;-72
2021/09/23 01:35:07;;;;;;;10.18;7.53;;;;;;;10.87;100.00;100069.13;5073561;28;20272;-72
2021/09/23 01:37:34;;;;;;;8.18;7.03;;;;;;;10.83;100.00;100064.84;5073424;28;20200;-73
2021/09/23 01:40:04;;;;;;;8.05;6.75;;;;;;;10.87;100.00;100063.75;5073527;28;20966;-73
2021/09/23 01:42:30;;;;;;;9.02;7.82;;;;;;;10.71;100.00;100060.09;5072838;28;20680;-73
2021/09/23 01:44:57;;;;;;;8.57;7.20;;;;;;;10.70;100.00;100058.38;5073400;28;20199;-73
2021/09/23 01:47:24;;;;;;;9.73;7.45;;;;;;;10.80;100.00;100048.84;5073021;28;20201;-73
2021/09/23 01:49:51;;;;;;;9.32;6.20;;;;;;;10.93;98.63;100049.97;5073272;28;20189;-73
2021/09/23 01:52:18;;;;;;;12.00;8.30;;;;;;;10.70;99.56;100045.78;5073400;28;20195;-74
2021/09/23 01:54:47;;;;;;;7.82;6.95;;;;;;;10.60;99.96;100047.19;5072567;28;20281;-73
2021/09/23 01:57:15;;;;;;;8.32;7.20;;;;;;;10.57;100.00;100032.06;5073145;28;20188;-73
2021/09/23 01:59:42;;;;;;;8.40;7.55;;;;;;;10.63;100.00;100041.66;5072512;28;20195;-74
2021/09/23 02:02:08;;;;;;;10.25;8.02;;;;;;;10.59;100.00;100045.47;5073289;28;20534;-74
2021/09/23 02:04:35;;;;;;;8.52;6.65;;;;;;;10.76;100.00;100041.88;5072346;28;20191;-73
2021/09/23 02:07:02;;;;;;;10.85;6.82;;;;;;;10.70;99.63;100047.59;5073269;28;20633;-73
2021/09/23 02:09:32;;;;;;;8.95;6.63;;;;;;;10.55;100.00;100044.72;5072900;28;20629;-74
2021/09/23 02:11:59;;;;;;;8.73;7.25;;;;;;;10.57;100.00;100037.44;5073068;28;20545;-74
2021/09/23 02:14:27;;;;;;;9.10;6.50;;;;;;;10.53;100.00;100032.28;5073166;28;20184;-73
2021/09/23 02:16:53;;;;;;;8.43;6.78;;;;;;;10.72;99.79;100034.91;5073039;28;20202;-74
2021/09/23 02:19:20;;;;;;;7.80;6.47;;;;;;;10.90;98.57;100028.59;5074627;28;20278;-73
2021/09/23 02:21:48;;;;;;;10.68;6.93;;;;;;;10.83;97.06;100011.88;5076301;28;20239;-73
2021/09/23 02:24:14;;;;;;;10.00;6.97;;;;;;;10.90;96.97;100001.63;5076433;28;20546;-73
2021/09/23 02:26:41;;;;;;;7.28;6.55;;;;;;;11.03;97.92;99991.94;5076602;28;20189;-73
2021/09/23 02:29:08;;;;;;;8.98;6.28;;;;;;;11.16;96.17;99985.88;5076680;28;20192;-74
2021/09/23 02:31:36;;;;;;;8.20;7.20;;;;;;;11.25;95.03;99988.09;5076678;28;20286;-74
2021/09/23 02:34:02;;;;;;;11.27;7.25;;;;;;;10.94;94.92;99995.13;5076537;28;20660;-74
2021/09/23 02:36:29;;;;;;;7.38;6.32;;;;;;;10.54;96.83;99997.22;5076351;28;20235;-73
2021/09/23 02:38:55;;;;;;;10.85;6.82;;;;;;;10.34;97.96;99998.25;5076369;28;20207;-73
2021/09/23 02:41:22;;;;;;;10.40;6.75;;;;;;;10.13;100.00;99999.28;5076545;28;20205;-73
2021/09/23 02:43:48;;;;;;;9.07;7.05;;;;;;;10.14;100.00;99990.28;5076479;28;20682;-74
2021/09/23 02:46:15;;;;;;;7.40;6.70;;;;;;;10.29;100.00;99984.16;5076413;28;20199;-73
2021/09/23 02:48:43;;;;;;;8.43;7.43;;;;;;;10.43;100.00;99987.00;5076208;28;20196;-74
2021/09/23 02:51:10;;;;;;;7.90;7.10;;;;;;;10.55;97.99;99995.41;5076466;28;20191;-72
2021/09/23 02:53:37;;;;;;;10.27;6.85;;;;;;;10.39;98.90;99990.78;5076227;28;20200;-73
2021/09/23 02:56:04;;;;;;;9.20;6.80;;;;;;;10.55;99.07;99985.50;5076298;28;20649;-73
2021/09/23 02:58:31;;;;;;;10.43;6.90;;;;;;;10.61;98.89;99979.78;5076259;28;20271;-74
2021/09/23 03:00:58;;;;;;;8.70;6.97;;;;;;;10.70;97.86;99970.38;5075563;28;20224;-74
2021/09/23 03:03:24;;;;;;;7.70;6.95;;;;;;;10.49;98.25;99968.78;5075961;28;20193;-73
2021/09/23 03:05:52;;;;;;;7.95;7.18;;;;;;;10.57;97.72;99975.50;5075423;28;20276;-73
2021/09/23 03:08:20;;;;;;;11.88;7.60;;;;;;;10.41;99.26;99966.50;5075660;28;20197;-73
2021/09/23 03:10:46;;;;;;;9.77;6.85;;;;;;;10.61;98.94;99968.16;5075685;28;20284;-73
2021/09/23 03:13:13;;;;;;;8.88;7.25;;;;;;;10.66;97.91;99949.06;5075948;28;20198;-73
2021/09/23 03:15:39;;;;;;;11.73;6.80;;;;;;;10.66;96.06;99943.69;5075918;28;20682;-73
2021/09/23 03:18:06;;;;;;;9.55;7.10;;;;;;;10.59;96.46;99940.44;5075613;28;20242;-73
2021/09/23 03:20:33;;;;;;;10.40;7.75;;;;;;;10.54;96.50;99932.59;5074953;28;20275;-73
2021/09/23 03:23:01;;;;;;;12.52;6.93;;;;;;;10.15;98.64;99944.47;5075592;28;20318;-73
2021/09/23 03:25:29;;;;;;;9.90;7.63;;;;;;;10.03;100.00;99934.31;5075765;28;20605;-73
2021/09/23 03:27:56;;;;;;;10.07;7.22;;;;;;;10.33;100.00;99922.94;5075593;28;20611;-73
2021/09/23 03:30:23;;;;;;;7.97;6.47;;;;;;;10.33;97.44;99922.94;5074878;28;20193;-73
2021/09/23 03:32:50;;;;;;;7.95;7.13;;;;;;;10.00;99.27;99935.34;5075612;28;20184;-73
2021/09/23 03:35:17;;;;;;;9.35;7.03;;;;;;;10.02;99.28;99930.75;5074425;28;20195;-73
2021/09/23 03:37:44;;;;;;;8.88;7.43;;;;;;;10.09;99.74;99927.75;5074916;28;20193;-73
2021/09/23 03:40:12;;;;;;;8.18;7.38;;;;;;;10.23;98.82;99930.59;5075018;28;20520;-73
2021/09/23 03:42:39;;;;;;;9.02;7.22;;;;;;;10.15;98.36;99927.41;5075358;28;20207;-73
2021/09/23 03:45:07;;;;;;;8.55;7.20;;;;;;;10.22;98.54;99918.97;5075151;28;20204;-74
2021/09/23 03:47:34;;;;;;;8.57;6.90;;;;;;;10.33;97.95;99918.44;5075488;28;20192;-74
2021/09/23 03:50:00;;;;;;;10.48;8.15;;;;;;;10.23;98.21;99923.38;5075321;28;20562;-74
2021/09/23 03:52:28;;;;;;;8.90;6.63;;;;;;;10.11;98.28;99918.66;5074971;28;20199;-74
2021/09/23 03:54:55;;;;;;;9.63;8.73;;;;;;;10.00;99.28;99911.13;5074373;28;20200;-73
2021/09/23 03:57:23;;;;;;;11.35;7.63;;;;;;;9.92;100.00;99904.38;5075321;28;20207;-74
2021/09/23 03:59:49;;;;;;;9.27;7.13;;;;;;;9.99;100.00;99904.00;5075288;28;20530;-74
2021/09/23 04:02:16;;;;;;;9.98;8.13;;;;;;;9.91;100.00;99900.84;5074701;28;20202;-74
2021/09/23 04:04:43;;;;;;;13.05;7.95;;;;;;;9.85;100.00;99897.56;5074850;28;20206;-73
2021/09/23 04:07:09;;;;;;;9.68;7.20;;;;;;;10.20;100.00;99882.34;5074648;28;20749;-74
2021/09/23 04:09:36;;;;;;;11.25;7.90;;;;;;;10.36;100.00;99879.75;5075227;28;20191;-73
2021/09/23 04:12:03;;;;;;;9.77;7.43;;;;;;;10.57;97.44;99888.50;5074186;28;20196;-73
2021/09/23 04:14:31;;;;;;;10.02;8.10;;;;;;;10.24;97.10;99889.28;5074305;28;20284;-73
2021/09/23 04:16:58;;;;;;;13.98;8.27;;;;;;;10.10;98.86;99897.19;5074716;28;20295;-74
2021/09/23 04:19:24;;;;;;;16.55;14.95;;;;;;;9.98;98.85;99896.88;5074979;28;20207;-73
2021/09/23 04:21:51;;;;;;;10.75;7.88;;;;;;;9.67;100.00;99908.28;5074192;28;20214;-73
2021/09/23 04:24:18;;;;;;;11.18;8.30;;;;;;;9.66;100.00;99916.47;5074079;28;20186;-73
2021/09/23 04:26:46;;;;;;;9.90;7.82;;;;;;;9.60;100.00;99915.78;5074043;28;20204;-74
2021/09/23 04:29:12;;;;;;;9.27;7.85;;;;;;;9.69;100.00;99913.59;5073749;28;20192;-73
2021/09/23 04:31:40;;;;;;;10.65;7.95;;;;;;;9.95;99.27;99906.91;5074051;28;20290;-73
2021/09/23 04:34:07;;;;;;;8.60;7.03;;;;;;;9.88;98.05;99902.78;5073960;28;20224;-73
2021/09/23 04:36:34;;;;;;;9.38;8.38;;;;;;;9.95;98.07;99915.88;5073389;28;20259;-73
2021/09/23 04:39:00;;;;;;;9.82;8.27;;;;;;;9.86;98.35;99912.75;5074320;28;20698;-73
2021/09/23 04:41:27;;;;;;;9.00;8.07;;;;;;;10.05;98.28;99908.19;5073144;28;20200;-72
2021/09/23 04:43:54;;;;;;;9.20;7.75;;;;;;;10.18;96.53;99890.47;5073749;28;20207;-73
2021/09/23 04:46:22;;;;;;;9.98;7.35;;;;;;;10.19;94.65;99876.06;5074075;28;20568;-73
2021/09/23 04:48:51;;;;;;;11.00;8.15;;;;;;;10.02;95.82;99873.38;5073735;28;20199;-73
2021/09/23 04:51:18;;;;;;;10.20;7.45;;;;;;;10.11;97.00;99866.66;5073420;28;20184;-73
2021/09/23 04:53:45;;;;;;;13.85;9.40;;;;;;;10.09;97.81;99869.44;5073832;28;20557;-73
2021/09/23 04:56:11;;;;;;;11.57;8.15;;;;;;;10.20;97.91;99869.75;5073639;28;20614;-73
2021/09/23 04:58:38;;;;;;;10.40;8.10;;;;;;;10.21;96.58;99862.53;5073476;28;20571;-72
2021/09/23 05:01:05;;;;;;;8.55;7.70;;;;;;;10.21;96.86;99866.09;5072868;28;20190;-74
2021/09/23 05:03:31;;;;;;;12.25;8.55;;;;;;;10.13;94.82;99871.00;5073015;28;20242;-73
2021/09/23 05:06:00;;;;;;;10.55;8.63;;;;;;;9.92;96.68;99869.41;5072851;28;20189;-72
2021/09/23 05:08:26;;;;;;;10.65;8.75;;;;;;;10.09;96.62;99865.88;5073243;28;20204;-74
2021/09/23 05:10:53;;;;;;;11.38;9.13;;;;;;;10.06;95.07;99856.13;5073732;28;20185;-74
2021/09/23 05:13:20;;;;;;;10.40;8.95;;;;;;;10.04;94.88;99847.28;5073329;28;20230;-72
2021/09/23 05:15:46;;;;;;;13.60;9.43;;;;;;;9.98;95.11;99858.34;5073678;28;20185;-72
2021/09/23 05:18:14;;;;;;;17.80;11.30;;;;;;;9.97;95.41;99853.91;5072607;28;20189;-73
2021/09/23 05:20:40;;;;;;;11.30;8.65;;;;;;;9.87;95.77;99877.72;5073108;28;20194;-73
2021/09/23 05:23:09;;;;;;;10.73;9.23;;;;;;;9.66;96.11;99871.63;5072848;28;20578;-72
2021/09/23 05:25:36;;;;;;;11.57;8.30;;;;;;;9.52;97.47;99875.00;5073290;28;20184;-73
2021/09/23 05:28:03;;;;;;;11.90;8.50;;;;;;;9.70;97.64;99875.91;5072657;28;20198;-73
2021/09/23 05:30:29;;;;;;;11.90;9.35;;;;;;;9.85;97.24;99876.06;5072043;28;20290;-72
2021/09/23 05:32:56;;;;;;;13.85;11.30;;;;;;;9.85;97.04;99870.69;5073065;28;20679;-73
2021/09/23 05:35:23;;;;;;;12.20;8.98;;;;;;;9.79;97.67;99867.38;5071178;28;20223;-73
2021/09/23 05:37:49;;;;;;;10.15;8.20;;;;;;;9.82;96.97;99872.56;5072217;28;20646;-74
2021/09/23 05:40:17;;;;;;;10.32;8.35;;;;;;;9.78;96.50;99868.28;5072127;28;20191;-72
2021/09/23 05:42:44;;;;;;;12.10;9.20;;;;;;;9.89;96.55;99866.91;5072496;28;20431;-72
2021/09/23 05:45:12;;;;;;;15.45;10.77;;;;;;;9.92;95.38;99866.72;5072668;28;20231;-73
2021/09/23 05:47:39;;;;;;;12.55;9.90;;;;;;;9.97;95.60;99859.28;5072861;28;20244;-74
2021/09/23 05:50:08;;;;;;;13.90;9.85;;;;;;;10.03;94.93;99851.75;5072309;28;20191;-74
2021/09/23 05:52:34;;;;;;;16.38;9.50;;;;;;;9.93;93.86;99857.72;5074007;28;20226;-74
2021/09/23 05:55:01;;;;;;;11.10;9.23;;;;;;;9.84;94.64;99874.34;5076308;28;20196;-73
2021/09/23 05:57:34;;;;;;;12.73;9.70;;;;;;;9.70;94.97;99867.84;5076128;28;20191;-73
2021/09/23 06:00:01;;;;;;;12.68;9.98;;;;;;;9.65;95.48;99877.06;5076427;28;20281;-73
2021/09/23 06:02:28;;;;;;;13.25;9.77;;;;;;;9.75;95.42;99871.16;5076619;28;20204;-73
2021/09/23 06:04:55;;;;;;;11.85;10.15;;;;;;;9.77;94.79;99879.16;5076380;28;20194;-73
2021/09/23 06:07:21;;;;;;;13.40;10.40;;;;;;;9.86;94.49;99883.16;5074851;28;20207;-73
2021/09/23 06:09:48;;;;;;;12.32;9.93;;;;;;;9.82;94.53;99886.03;5075541;28;20548;-72
2021/09/23 06:12:14;;;;;;;21.33;10.43;;;;;;;9.80;94.84;99893.28;5076004;28;20195;-74
2021/09/23 06:14:42;;;;;;;15.93;10.07;;;;;;;9.82;94.73;99887.84;5075566;28;20202;-73
2021/09/23 06:17:09;;;;;;;13.88;9.85;;;;;;;9.76;95.39;99888.16;5076493;28;20731;-73
2021/09/23 06:19:36;;;;;;;13.63;10.38;;;;;;;9.75;95.77;99889.97;5076351;28;20227;-75
2021/09/23 06:22:03;;;;;;;15.02;9.80;;;;;;;9.92;96.31;99888.25;5074954;28;20213;-74
2021/09/23 06:24:29;;;;;;;12.32;10.20;;;;;;;10.08;95.07;99877.56;5076230;28;20210;-73
2021/09/23 06:26:56;;;;;;;13.95;10.60;;;;;;;10.22;94.11;99870.53;5076471;28;20191;-73
2021/09/23 06:29:23;;;;;;;10.52;9.13;;;;;;;10.20;94.16;99869.75;5076223;28;20184;-72
2021/09/23 06:31:52;;;;;;;11.77;10.20;;;;;;;10.14;93.94;99882.63;5076542;28;20555;-74
2021/09/23 06:34:19;;;;;;;12.45;10.18;;;;;;;10.23;93.77;99877.66;5076144;28;20200;-73
2021/09/23 06:36:45;;;;;;;12.20;9.95;;;;;;;10.21;94.06;99879.53;5075768;28;20234;-72
2021/09/23 06:39:12;;;;;;;13.35;9.88;;;;;;;10.20;93.73;99876.94;5076071;28;20636;-72
2021/09/23 06:41:38;;;;;;;13.50;11.20;;;;;;;10.53;92.96;99871.63;5076773;28;20638;-74
2021/09/23 06:44:06;;;;;;;13.57;10.55;;;;;;;10.65;92.18;99872.81;5075760;28;20251;-73
2021/09/23 06:46:33;;;;;;;17.38;12.80;;;;;;;10.61;92.32;99882.84;5076372;28;20193;-74
2021/09/23 06:49:01;;;;;;;13.30;9.18;;;;;;;10.51;93.15;99875.34;5076065;28;20205;-73
2021/09/23 06:51:28;;;;;;;15.15;10.00;;;;;;;10.43;93.68;99870.38;5076183;28;20532;-73
2021/09/23 06:53:56;;;;;;;15.23;11.13;;;;;;;10.50;94.13;99874.47;5075633;28;20231;-73
2021/09/23 06:56:23;;;;;;;13.07;9.95;;;;;;;10.63;93.90;99872.00;5075411;28;20275;-74
2021/09/23 06:58:50;;;;;;;17.02;11.85;;;;;;;10.80;93.49;99871.06;5075739;28;20633;-72
2021/09/23 07:01:17;;;;;;;13.57;10.52;;;;;;;11.04;92.18;99876.94;5075122;28;20218;-74
2021/09/23 07:03:43;;;;;;;12.27;10.10;;;;;;;11.02;91.35;99882.41;5074775;28;20288;-73
2021/09/23 07:06:11;;;;;;;15.85;10.27;;;;;;;11.11;91.23;99890.94;5074933;28;20555;-74
2021/09/23 07:08:38;;;;;;;12.70;9.55;;;;;;;11.21;91.49;99892.16;5075164;28;20184;-74
2021/09/23 07:11:05;;;;;;;16.58;11.05;;;;;;;11.51;90.06;99894.06;5075445;28;20600;-73
2021/09/23 07:13:32;;;;;;;16.30;10.98;;;;;;;11.78;88.52;99897.00;5075159;28;20195;-75
2021/09/23 07:16:00;;;;;;;14.38;10.77;;;;;;;11.86;87.57;99897.44;5075230;28;20627;-74
2021/09/23 07:18:27;;;;;;;13.65;10.35;;;;;;;11.82;87.34;99894.03;5074960;28;20199;-74
2021/09/23 07:20:55;;;;;;;16.42;10.82;;;;;;;11.87;86.61;99897.38;5075094;28;20193;-74
2021/09/23 07:23:24;;;;;;;14.15;11.15;;;;;;;11.75;86.29;99894.50;5075258;28;20556;-74
2021/09/23 07:25:51;;;;;;;18.17;12.02;;;;;;;11.74;87.19;99896.31;5076062;28;20201;-73
2021/09/23 07:28:17;;;;;;;14.57;10.95;;;;;;;11.82;87.12;99899.44;5075421;28;20548;-74
2021/09/23 07:30:44;;;;;;;13.13;11.10;;;;;;;11.87;87.11;99894.69;5075466;28;20188;-74
2021/09/23 07:33:11;;;;;;;15.93;11.65;;;;;;;12.05;86.96;99889.13;5075295;28;20669;-74
2021/09/23 07:35:38;;;;;;;15.40;12.05;;;;;;;12.32;85.80;99897.41;5074919;28;20242;-74
2021/09/23 07:38:05;;;;;;;13.18;10.63;;;;;;;12.33;85.69;99909.97;5075268;28;20207;-74
2021/09/23 07:40:33;;;;;;;17.40;11.07;;;;;;;12.42;84.81;99917.50;5075286;28;20264;-73
2021/09/23 07:43:00;;;;;;;14.65;10.18;;;;;;;12.48;84.15;99918.94;5074841;28;20558;-73
2021/09/23 07:45:27;;;;;;;11.82;9.60;;;;;;;12.40;84.57;99927.53;5075630;28;20200;-73
2021/09/23 07:47:53;;;;;;;14.52;9.80;;;;;;;12.34;85.89;99925.19;5074218;28;20329;-73
2021/09/23 07:50:20;;;;;;;13.05;10.48;;;;;;;12.28;87.22;99929.16;5074973;28;20519;-74
2021/09/23 07:52:46;;;;;;;15.30;11.80;;;;;;;12.12;88.84;99920.22;5074956;28;20306;-73
2021/09/23 07:55:13;;;;;;;15.50;11.38;;;;;;;12.23;88.53;99920.47;5075081;28;20187;-74
2021/09/23 07:57:41;;;;;;;14.55;12.10;;;;;;;12.55;86.86;99922.16;5074399;28;20218;-74
2021/09/23 08:00:09;;;;;;;16.38;10.77;;;;;;;12.75;86.06;99918.22;5074704;28;20207;-74
2021/09/23 08:02:36;;;;;;;18.70;12.20;;;;;;;12.86;85.39;99922.00;5073813;28;20259;-73
2021/09/23 08:05:02;;;;;;;21.02;11.32;;;;;;;13.17;83.71;99916.50;5074402;28;20288;-73
2021/09/23 08:07:29;;;;;;;13.00;10.63;;;;;;;13.27;83.32;99914.94;5074539;28;20191;-74
2021/09/23 08:09:56;;;;;;;12.85;11.05;;;;;;;13.26;83.85;99910.50;5074348;28;20300;-74
2021/09/23 08:12:22;;;;;;;12.63;9.68;;;;;;;13.56;81.52;99911.22;5074743;28;20197;-74
2021/09/23 08:14:50;;;;;;;13.23;11.25;;;;;;;13.59;80.79;99904.78;5074430;28;20629;-73
2021/09/23 08:17:17;;;;;;;17.10;11.40;;;;;;;13.72;80.93;99897.56;5073274;28;20208;-74
2021/09/23 08:19:44;;;;;;;16.48;11.27;;;;;;;14.13;78.29;99902.06;5073928;28;20201;-72
2021/09/23 08:22:11;;;;;;;15.57;11.15;;;;;;;14.11;78.13;99897.69;5074319;28;20182;-73
2021/09/23 08:24:39;;;;;;;12.10;9.70;;;;;;;14.23;77.12;99886.03;5074203;28;20210;-73
2021/09/23 08:27:06;;;;;;;14.40;9.93;;;;;;;14.37;76.79;99887.78;5074265;28;20208;-73
2021/09/23 08:29:32;;;;;;;14.65;10.07;;;;;;;14.63;75.41;99888.72;5074153;28;20191;-74
2021/09/23 08:32:00;;;;;;;21.17;11.02;;;;;;;14.17;77.38;99902.69;5074209;28;20190;-74
2021/09/23 08:34:27;;;;;;;15.20;9.73;;;;;;;14.30;77.47;99897.31;5073537;28;20198;-74
2021/09/23 08:36:54;;;;;;;13.73;10.63;;;;;;;14.42;77.01;99899.16;5074012;28;20258;-72
2021/09/23 08:39:20;;;;;;;15.10;10.48;;;;;;;14.39;77.10;99889.41;5074164;28;20189;-73
2021/09/23 08:41:49;;;;;;;16.85;12.57;;;;;;;14.64;75.98;99882.31;5073797;28;20294;-75
2021/09/23 08:44:16;;;;;;;15.70;11.35;;;;;;;14.80;75.06;99872.09;5073924;28;20319;-74
2021/09/23 08:46:43;;;;;;;15.27;11.18;;;;;;;14.75;74.84;99882.41;5074031;28;20209;-73
2021/09/23 08:49:11;;;;;;;16.88;9.38;;;;;;;15.00;74.10;99876.09;5073738;28;20199;-73
2021/09/23 08:51:38;;;;;;;12.23;9.98;;;;;;;14.88;74.71;99868.88;5073686;28;20198;-75
2021/09/23 08:54:06;;;;;;;11.90;9.15;;;;;;;15.07;73.59;99871.09;5073587;28;20190;-73
2021/09/23 08:56:33;;;;;;;13.77;10.10;;;;;;;15.18;73.79;99868.47;5073774;28;20657;-73
2021/09/23 08:59:00;;;;;;;15.13;9.90;;;;;;;15.22;74.14;99864.56;5073331;28;20194;-73
2021/09/23 09:01:32;;;;;;;15.63;10.55;;;;;;;15.54;72.80;99872.19;5073244;28;20559;-72
2021/09/23 09:04:00;;;;;;;11.00;9.48;;;;;;;15.51;72.33;99872.41;5072906;28;20215;-72
2021/09/23 09:06:28;;;;;;;12.55;10.30;;;;;;;15.39;73.55;99873.31;5073230;28;20194;-73
2021/09/23 09:08:56;;;;;;;10.70;9.02;;;;;;;15.31;73.98;99867.56;5073877;28;20526;-73
2021/09/23 09:11:23;;;;;;;14.40;10.00;;;;;;;15.51;72.70;99875.13;5073459;28;20665;-72
2021/09/23 09:13:52;;;;;;;12.95;9.95;;;;;;;15.66;72.32;99861.38;5073358;28;20271;-71
2021/09/23 09:16:22;;;;;;;12.02;9.88;;;;;;;15.81;72.14;99877.41;5073072;28;20211;-72
2021/09/23 09:18:53;;;;;;;19.02;11.32;;;;;;;16.05;71.48;99876.53;5073236;28;20227;-74
2021/09/23 09:21:21;;;;;;;15.85;10.30;;;;;;;16.13;70.10;99884.09;5073676;28;20238;-74
2021/09/23 09:23:51;;;;;;;13.63;10.00;;;;;;;15.96;71.73;99872.66;5072711;28;20227;-74
2021/09/23 09:26:27;;;;;;;15.23;9.52;;;;;;;16.30;69.31;99866.47;5053570;28;20586;-74
2021/09/23 09:28:55;;;;;;;16.77;10.75;;;;;;;16.28;68.25;99872.06;5052454;28;20204;-74
2021/09/23 09:31:22;;;;;;;14.40;10.15;;;;;;;16.47;67.16;99876.91;5052931;28;20279;-72
2021/09/23 09:33:52;;;;;;;13.23;9.80;;;;;;;16.48;67.32;99870.47;5052758;28;20194;-73
2021/09/23 09:36:33;;;;;;;13.52;9.93;;;;;;;16.63;66.17;99872.00;5052477;28;20229;-72
2021/09/23 09:39:05;;;;;;;12.57;8.40;;;;;;;16.81;65.85;99866.13;5053207;28;20534;-75
2021/09/23 09:41:34;;;;;;;11.38;8.80;;;;;;;17.00;65.29;99869.09;5053101;28;20276;-74
2021/09/23 09:44:03;;;;;;;16.00;9.65;;;;;;;16.97;65.30;99876.63;5053000;28;20561;-74
2021/09/23 09:46:32;;;;;;;13.20;9.10;;;;;;;17.31;63.63;99882.94;5052587;28;20205;-74
2021/09/23 09:49:00;;;;;;;12.32;8.73;;;;;;;17.05;64.57;99874.19;5053171;28;20280;-72
2021/09/23 09:51:36;;;;;;;14.18;8.35;;;;;;;17.13;64.08;99877.13;5053116;28;20604;-74
2021/09/23 09:54:05;;;;;;;9.35;7.60;;;;;;;17.38;63.53;99873.25;5059232;28;20192;-73
2021/09/23 09:56:32;;;;;;;15.55;9.30;;;;;;;17.45;62.83;99866.31;5073204;28;20193;-74
2021/09/23 09:59:12;;;;;;;13.32;9.27;;;;;;;17.67;61.76;99859.09;5073008;28;20669;-72
2021/09/23 10:01:39;;;;;;;16.30;9.02;;;;;;;17.57;62.32;99856.28;5072595;28;20184;-74
2021/09/23 10:04:06;;;;;;;15.93;9.02;;;;;;;17.80;61.57;99859.81;5072407;28;20224;-71
2021/09/23 10:06:34;;;;;;;13.23;9.63;;;;;;;17.97;61.35;99850.22;5072582;28;20360;-72
2021/09/23 10:09:01;;;;;;;13.20;9.27;;;;;;;18.24;60.33;99832.50;5072332;28;20186;-73
2021/09/23 10:11:30;;;;;;;19.02;10.00;;;;;;;18.03;60.90;99836.09;5072422;28;20204;-73
2021/09/23 10:13:57;;;;;;;15.45;10.13;;;;;;;18.28;60.12;99821.22;5072997;28;20543;-72
2021/09/23 10:16:24;;;;;;;15.57;10.20;;;;;;;18.51;59.40;99827.38;5072795;28;20203;-75
2021/09/23 10:18:52;;;;;;;13.43;9.73;;;;;;;18.41;59.51;99826.47;5073337;28;20277;-74
2021/09/23 10:21:19;;;;;;;13.15;9.07;;;;;;;18.51;59.48;99832.81;5072774;28;20537;-74
2021/09/23 10:23:45;;;;;;;21.30;14.25;;;;;;;18.26;60.17;99827.78;5072843;28;20297;-74
2021/09/23 10:26:16;;;;;;;16.25;10.35;;;;;;;18.63;59.64;99830.03;5072481;28;20241;-73
2021/09/23 10:28:47;;;;;;;11.57;9.98;;;;;;;18.83;58.89;99817.38;5072618;28;20766;-73
2021/09/23 10:31:18;;;;;;;15.05;9.45;;;;;;;18.83;58.21;99815.50;5072661;28;20190;-73
2021/09/23 10:33:46;;;;;;;13.32;8.23;;;;;;;18.79;58.90;99813.19;5072049;28;20196;-72
2021/09/23 10:36:14;;;;;;;10.57;7.53;;;;;;;18.87;58.26;99810.66;5072121;28;20254;-74
2021/09/23 10:38:42;;;;;;;10.90;7.97;;;;;;;18.73;58.68;99812.72;5072029;28;20182;-74
2021/09/23 10:41:09;;;;;;;9.85;7.60;;;;;;;18.82;58.68;99797.44;5075591;28;20560;-74
2021/09/23 10:43:36;;;;;;;11.35;7.63;;;;;;;18.84;59.35;99808.22;5075709;28;20215;-73
2021/09/23 10:46:05;;;;;;;12.88;6.22;;;;;;;19.08;58.06;99800.53;5075363;28;20192;-72
2021/09/23 10:48:35;;;;;;;10.45;7.05;;;;;;;19.30;58.05;99796.72;5075961;28;20526;-75
2021/09/23 10:51:03;;;;;;;13.23;7.30;;;;;;;19.31;57.97;99786.66;5075993;28;20199;-73
2021/09/23 10:53:33;;;;;;;10.77;6.85;;;;;;;19.19;58.50;99779.59;5075433;28;20222;-72
2021/09/23 10:56:02;;;;;;;9.63;6.65;;;;;;;19.41;58.01;99779.34;5075364;28;20190;-73
2021/09/23 10:58:30;;;;;;;8.95;6.90;;;;;;;19.62;57.98;99779.22;5075975;28;20275;-72
2021/09/23 11:00:59;;;;;;;9.18;6.38;;;;;;;19.88;57.85;99776.81;5075391;28;20296;-73
2021/09/23 11:03:31;;;;;;;11.50;7.32;;;;;;;19.94;57.47;99762.59;5075706;28;20219;-72
2021/09/23 11:05:58;;;;;;;11.77;6.50;;;;;;;19.97;57.64;99767.75;5075335;28;20271;-74
2021/09/23 11:08:29;;;;;;;6.80;5.93;;;;;;;19.50;58.11;99769.44;5075351;28;20291;-74
2021/09/23 11:10:57;;;;;;;7.28;5.20;;;;;;;19.28;58.66;99765.09;5075707;28;20188;-73
2021/09/23 11:13:24;;;;;;;7.65;5.55;;;;;;;19.15;59.02;99770.81;5076140;28;20195;-74
2021/09/23 11:15:51;;;;;;;7.38;5.18;;;;;;;19.33;58.86;99762.81;5075134;28;20561;-72
2021/09/23 11:18:18;;;;;;;11.90;4.85;;;;;;;19.47;58.41;99758.78;5075374;28;20192;-73
2021/09/23 11:20:48;;;;;;;5.90;5.30;;;;;;;19.64;58.00;99749.91;5075476;28;20623;-73
2021/09/23 11:23:16;;;;;;;6.53;5.25;;;;;;;19.36;58.60;99743.44;5075352;28;20238;-73
2021/09/23 11:25:55;;;;;;;8.55;4.95;;;;;;;19.46;58.50;99740.69;5075029;28;20296;-73